Terminal Aerodrome Forecast
Issued by NWS Boston, MA

Home | Current Version | Previous Version | Text Only | Print | Product List | Glossary On
Versions: 1 2 3 4 5 6 7 8 9 10 11 12 13 14 15 16 17 18 19 20 21 22 23 24 25 26 27 28 29 30 31 32
000
FTUS41 KBOX 031730
TAFORH
TAF
KORH 031730Z 0318/0418 25006KT P6SM SCT140
     FM032100 19009KT P6SM BKN080
     FM032300 19009KT 2SM -SN BKN070
     FM040000 19009KT 1/2SM SN OVC030
     FM040300 20009KT 1/2SM SNPL OVC015
     FM040700 23010KT 6SM -FZRA OVC008
     FM040900 24008KT P6SM OVC008
     FM041100 24010KT P6SM OVC015=

USA.gov is the U.S. government's official web portal to all federal, state and local government web resources and services.